sensor_id;sensor_type;location;lat;lon;timestamp;P1;durP1;ratioP1;P2;durP2;ratioP2
39266;SDS011;24967;51.154;13.812;2022-08-01T00:00:08;2.33;;;2.22;;
39266;SDS011;24967;51.154;13.812;2022-08-01T00:02:37;2.17;;;1.90;;
39266;SDS011;24967;51.154;13.812;2022-08-01T00:05:04;2.33;;;2.13;;
39266;SDS011;24967;51.154;13.812;2022-08-01T00:07:31;2.70;;;1.65;;
39266;SDS011;24967;51.154;13.812;2022-08-01T00:09:58;5.47;;;2.42;;
39266;SDS011;24967;51.154;13.812;2022-08-01T00:12:24;2.38;;;1.92;;
39266;SDS011;24967;51.154;13.812;2022-08-01T00:14:50;1.77;;;1.67;;
39266;SDS011;24967;51.154;13.812;2022-08-01T00:17:17;2.30;;;2.13;;
39266;SDS011;24967;51.154;13.812;2022-08-01T00:19:45;2.47;;;2.00;;
39266;SDS011;24967;51.154;13.812;2022-08-01T00:22:11;2.10;;;2.00;;
39266;SDS011;24967;51.154;13.812;2022-08-01T00:24:38;2.00;;;1.90;;
39266;SDS011;24967;51.154;13.812;2022-08-01T00:27:04;2.63;;;2.47;;
39266;SDS011;24967;51.154;13.812;2022-08-01T00:29:31;2.15;;;2.05;;
39266;SDS011;24967;51.154;13.812;2022-08-01T00:31:57;2.55;;;2.10;;
39266;SDS011;24967;51.154;13.812;2022-08-01T00:34:23;2.25;;;2.15;;
39266;SDS011;24967;51.154;13.812;2022-08-01T00:36:51;2.20;;;2.10;;
39266;SDS011;24967;51.154;13.812;2022-08-01T00:39:18;3.00;;;2.20;;
39266;SDS011;24967;51.154;13.812;2022-08-01T00:41:44;2.67;;;2.30;;
39266;SDS011;24967;51.154;13.812;2022-08-01T00:44:10;2.45;;;2.35;;
39266;SDS011;24967;51.154;13.812;2022-08-01T00:46:37;2.17;;;2.08;;
39266;SDS011;24967;51.154;13.812;2022-08-01T00:49:03;2.55;;;2.25;;
39266;SDS011;24967;51.154;13.812;2022-08-01T00:51:30;2.25;;;2.15;;
39266;SDS011;24967;51.154;13.812;2022-08-01T00:53:59;2.60;;;2.42;;
39266;SDS011;24967;51.154;13.812;2022-08-01T00:56:26;2.75;;;2.60;;
39266;SDS011;24967;51.154;13.812;2022-08-01T00:58:54;2.58;;;2.47;;
39266;SDS011;24967;51.154;13.812;2022-08-01T01:01:21;3.72;;;2.50;;
39266;SDS011;24967;51.154;13.812;2022-08-01T01:03:48;2.33;;;2.10;;
39266;SDS011;24967;51.154;13.812;2022-08-01T01:06:20;2.83;;;2.63;;
39266;SDS011;24967;51.154;13.812;2022-08-01T01:08:54;2.53;;;2.33;;
39266;SDS011;24967;51.154;13.812;2022-08-01T01:11:28;3.10;;;2.42;;
39266;SDS011;24967;51.154;13.812;2022-08-01T01:14:01;3.72;;;2.72;;
39266;SDS011;24967;51.154;13.812;2022-08-01T01:16:31;3.03;;;2.83;;
39266;SDS011;24967;51.154;13.812;2022-08-01T01:19:01;3.15;;;2.95;;
39266;SDS011;24967;51.154;13.812;2022-08-01T01:21:35;4.10;;;3.30;;
39266;SDS011;24967;51.154;13.812;2022-08-01T01:24:17;3.03;;;2.83;;
39266;SDS011;24967;51.154;13.812;2022-08-01T01:26:54;3.15;;;2.90;;
39266;SDS011;24967;51.154;13.812;2022-08-01T01:29:30;3.20;;;2.80;;
39266;SDS011;24967;51.154;13.812;2022-08-01T01:32:02;4.10;;;3.33;;
39266;SDS011;24967;51.154;13.812;2022-08-01T01:37:01;2.97;;;2.78;;
39266;SDS011;24967;51.154;13.812;2022-08-01T01:39:30;2.60;;;2.50;;
39266;SDS011;24967;51.154;13.812;2022-08-01T01:41:58;2.88;;;2.67;;
39266;SDS011;24967;51.154;13.812;2022-08-01T01:44:26;2.78;;;2.63;;
39266;SDS011;24967;51.154;13.812;2022-08-01T01:46:56;2.78;;;2.67;;
39266;SDS011;24967;51.154;13.812;2022-08-01T01:49:26;2.53;;;2.33;;
39266;SDS011;24967;51.154;13.812;2022-08-01T01:51:55;2.63;;;2.42;;
39266;SDS011;24967;51.154;13.812;2022-08-01T01:54:24;2.47;;;2.28;;
39266;SDS011;24967;51.154;13.812;2022-08-01T01:56:55;2.20;;;2.10;;
39266;SDS011;24967;51.154;13.812;2022-08-01T01:59:24;2.28;;;2.17;;
39266;SDS011;24967;51.154;13.812;2022-08-01T02:01:55;2.50;;;2.30;;
39266;SDS011;24967;51.154;13.812;2022-08-01T02:04:24;2.22;;;2.13;;
39266;SDS011;24967;51.154;13.812;2022-08-01T02:06:53;2.17;;;2.08;;
39266;SDS011;24967;51.154;13.812;2022-08-01T02:09:20;2.50;;;2.30;;
39266;SDS011;24967;51.154;13.812;2022-08-01T02:11:47;2.35;;;2.22;;
39266;SDS011;24967;51.154;13.812;2022-08-01T02:14:16;2.63;;;2.33;;
39266;SDS011;24967;51.154;13.812;2022-08-01T02:16:46;2.25;;;2.15;;
39266;SDS011;24967;51.154;13.812;2022-08-01T02:19:15;2.42;;;2.20;;
39266;SDS011;24967;51.154;13.812;2022-08-01T02:21:45;2.47;;;2.38;;
39266;SDS011;24967;51.154;13.812;2022-08-01T02:26:46;3.17;;;2.80;;
39266;SDS011;24967;51.154;13.812;2022-08-01T02:31:46;2.65;;;2.45;;
39266;SDS011;24967;51.154;13.812;2022-08-01T02:34:15;3.20;;;3.00;;
39266;SDS011;24967;51.154;13.812;2022-08-01T02:36:45;2.45;;;2.35;;
39266;SDS011;24967;51.154;13.812;2022-08-01T02:39:14;2.42;;;2.22;;
39266;SDS011;24967;51.154;13.812;2022-08-01T02:41:45;2.58;;;2.40;;
39266;SDS011;24967;51.154;13.812;2022-08-01T02:44:15;3.22;;;3.00;;
39266;SDS011;24967;51.154;13.812;2022-08-01T02:46:51;3.35;;;3.05;;
39266;SDS011;24967;51.154;13.812;2022-08-01T02:49:21;3.67;;;2.67;;
39266;SDS011;24967;51.154;13.812;2022-08-01T02:51:51;3.15;;;2.90;;
39266;SDS011;24967;51.154;13.812;2022-08-01T02:54:20;2.55;;;2.33;;
39266;SDS011;24967;51.154;13.812;2022-08-01T02:56:49;2.70;;;2.50;;
39266;SDS011;24967;51.154;13.812;2022-08-01T02:59:18;2.42;;;2.33;;
39266;SDS011;24967;51.154;13.812;2022-08-01T03:01:46;2.80;;;2.67;;
39266;SDS011;24967;51.154;13.812;2022-08-01T03:04:13;2.47;;;2.38;;
39266;SDS011;24967;51.154;13.812;2022-08-01T03:06:44;3.03;;;2.83;;
39266;SDS011;24967;51.154;13.812;2022-08-01T03:09:11;3.22;;;2.88;;
39266;SDS011;24967;51.154;13.812;2022-08-01T03:11:39;3.33;;;2.55;;
39266;SDS011;24967;51.154;13.812;2022-08-01T03:14:07;2.50;;;2.30;;
39266;SDS011;24967;51.154;13.812;2022-08-01T03:16:36;2.90;;;2.65;;
39266;SDS011;24967;51.154;13.812;2022-08-01T03:19:04;2.22;;;2.13;;
39266;SDS011;24967;51.154;13.812;2022-08-01T03:21:33;2.00;;;1.90;;
39266;SDS011;24967;51.154;13.812;2022-08-01T03:24:03;2.30;;;2.10;;
39266;SDS011;24967;51.154;13.812;2022-08-01T03:26:33;2.92;;;2.35;;
39266;SDS011;24967;51.154;13.812;2022-08-01T03:29:02;2.80;;;2.60;;
39266;SDS011;24967;51.154;13.812;2022-08-01T03:31:32;2.42;;;2.25;;
39266;SDS011;24967;51.154;13.812;2022-08-01T03:34:01;2.25;;;2.15;;
39266;SDS011;24967;51.154;13.812;2022-08-01T03:36:28;2.35;;;2.25;;
39266;SDS011;24967;51.154;13.812;2022-08-01T03:38:57;2.42;;;2.30;;
39266;SDS011;24967;51.154;13.812;2022-08-01T03:41:28;3.30;;;2.60;;
39266;SDS011;24967;51.154;13.812;2022-08-01T03:44:00;2.08;;;1.98;;
39266;SDS011;24967;51.154;13.812;2022-08-01T03:46:35;2.42;;;2.33;;
39266;SDS011;24967;51.154;13.812;2022-08-01T03:49:10;1.90;;;1.80;;
39266;SDS011;24967;51.154;13.812;2022-08-01T03:51:40;2.75;;;2.00;;
39266;SDS011;24967;51.154;13.812;2022-08-01T03:54:06;2.45;;;2.25;;
39266;SDS011;24967;51.154;13.812;2022-08-01T03:56:37;2.55;;;2.30;;
39266;SDS011;24967;51.154;13.812;2022-08-01T03:59:05;2.78;;;2.60;;
39266;SDS011;24967;51.154;13.812;2022-08-01T04:01:32;2.35;;;2.25;;
39266;SDS011;24967;51.154;13.812;2022-08-01T04:03:59;2.58;;;2.47;;
39266;SDS011;24967;51.154;13.812;2022-08-01T04:06:26;2.30;;;2.20;;
39266;SDS011;24967;51.154;13.812;2022-08-01T04:08:53;2.33;;;2.22;;
39266;SDS011;24967;51.154;13.812;2022-08-01T04:11:23;3.10;;;2.38;;
39266;SDS011;24967;51.154;13.812;2022-08-01T04:13:53;2.38;;;2.08;;
39266;SDS011;24967;51.154;13.812;2022-08-01T04:16:21;2.53;;;2.42;;
39266;SDS011;24967;51.154;13.812;2022-08-01T04:18:48;2.22;;;2.10;;
39266;SDS011;24967;51.154;13.812;2022-08-01T04:21:15;2.45;;;2.35;;
39266;SDS011;24967;51.154;13.812;2022-08-01T04:23:44;2.90;;;2.50;;
39266;SDS011;24967;51.154;13.812;2022-08-01T04:26:12;2.53;;;2.42;;
39266;SDS011;24967;51.154;13.812;2022-08-01T04:28:41;3.53;;;2.80;;
39266;SDS011;24967;51.154;13.812;2022-08-01T04:31:11;4.35;;;2.75;;
39266;SDS011;24967;51.154;13.812;2022-08-01T04:33:40;2.70;;;2.60;;
39266;SDS011;24967;51.154;13.812;2022-08-01T04:36:10;3.13;;;2.40;;
39266;SDS011;24967;51.154;13.812;2022-08-01T04:38:40;3.05;;;2.80;;
39266;SDS011;24967;51.154;13.812;2022-08-01T04:41:11;2.80;;;2.60;;
39266;SDS011;24967;51.154;13.812;2022-08-01T04:43:40;3.95;;;2.42;;
39266;SDS011;24967;51.154;13.812;2022-08-01T04:46:07;2.92;;;2.60;;
39266;SDS011;24967;51.154;13.812;2022-08-01T04:48:36;2.63;;;2.42;;
39266;SDS011;24967;51.154;13.812;2022-08-01T04:51:03;5.78;;;2.40;;
39266;SDS011;24967;51.154;13.812;2022-08-01T04:53:30;2.60;;;2.40;;
39266;SDS011;24967;51.154;13.812;2022-08-01T04:55:59;3.97;;;2.30;;
39266;SDS011;24967;51.154;13.812;2022-08-01T04:58:26;3.08;;;2.83;;
39266;SDS011;24967;51.154;13.812;2022-08-01T05:00:52;2.72;;;2.53;;
39266;SDS011;24967;51.154;13.812;2022-08-01T05:03:18;3.35;;;3.05;;
39266;SDS011;24967;51.154;13.812;2022-08-01T05:05:46;3.13;;;2.75;;
39266;SDS011;24967;51.154;13.812;2022-08-01T05:08:13;3.55;;;3.25;;
39266;SDS011;24967;51.154;13.812;2022-08-01T05:10:39;3.58;;;2.95;;
39266;SDS011;24967;51.154;13.812;2022-08-01T05:13:06;4.25;;;3.17;;
39266;SDS011;24967;51.154;13.812;2022-08-01T05:15:32;3.10;;;2.90;;
39266;SDS011;24967;51.154;13.812;2022-08-01T05:17:58;2.90;;;2.80;;
39266;SDS011;24967;51.154;13.812;2022-08-01T05:20:25;3.40;;;3.10;;
39266;SDS011;24967;51.154;13.812;2022-08-01T05:22:53;3.45;;;3.08;;
39266;SDS011;24967;51.154;13.812;2022-08-01T05:25:19;3.50;;;3.20;;
39266;SDS011;24967;51.154;13.812;2022-08-01T05:27:46;2.83;;;2.72;;
39266;SDS011;24967;51.154;13.812;2022-08-01T05:30:13;5.03;;;3.33;;
39266;SDS011;24967;51.154;13.812;2022-08-01T05:32:39;2.95;;;2.75;;
39266;SDS011;24967;51.154;13.812;2022-08-01T05:35:06;2.75;;;2.65;;
39266;SDS011;24967;51.154;13.812;2022-08-01T05:37:33;3.47;;;3.03;;
39266;SDS011;24967;51.154;13.812;2022-08-01T05:40:01;3.10;;;2.80;;
39266;SDS011;24967;51.154;13.812;2022-08-01T05:42:28;3.42;;;3.13;;
39266;SDS011;24967;51.154;13.812;2022-08-01T05:44:55;2.92;;;2.83;;
39266;SDS011;24967;51.154;13.812;2022-08-01T05:47:23;3.47;;;2.97;;
39266;SDS011;24967;51.154;13.812;2022-08-01T05:49:49;3.10;;;2.80;;
39266;SDS011;24967;51.154;13.812;2022-08-01T05:52:16;3.20;;;2.90;;
39266;SDS011;24967;51.154;13.812;2022-08-01T05:54:42;3.33;;;2.97;;
39266;SDS011;24967;51.154;13.812;2022-08-01T05:57:10;5.63;;;2.80;;
39266;SDS011;24967;51.154;13.812;2022-08-01T05:59:37;3.13;;;2.88;;
39266;SDS011;24967;51.154;13.812;2022-08-01T06:02:03;3.30;;;3.00;;
39266;SDS011;24967;51.154;13.812;2022-08-01T06:04:29;2.72;;;2.50;;
39266;SDS011;24967;51.154;13.812;2022-08-01T06:06:56;3.33;;;2.80;;
39266;SDS011;24967;51.154;13.812;2022-08-01T06:09:23;3.58;;;2.50;;
39266;SDS011;24967;51.154;13.812;2022-08-01T06:11:50;3.08;;;2.80;;
39266;SDS011;24967;51.154;13.812;2022-08-01T06:14:18;2.97;;;2.80;;
39266;SDS011;24967;51.154;13.812;2022-08-01T06:16:44;3.72;;;3.53;;
39266;SDS011;24967;51.154;13.812;2022-08-01T06:19:11;3.22;;;3.03;;
39266;SDS011;24967;51.154;13.812;2022-08-01T06:21:38;2.75;;;2.55;;
39266;SDS011;24967;51.154;13.812;2022-08-01T06:24:04;3.15;;;2.80;;
39266;SDS011;24967;51.154;13.812;2022-08-01T06:26:31;3.65;;;2.75;;
39266;SDS011;24967;51.154;13.812;2022-08-01T06:28:58;3.08;;;2.55;;
39266;SDS011;24967;51.154;13.812;2022-08-01T06:31:26;5.00;;;2.85;;
39266;SDS011;24967;51.154;13.812;2022-08-01T06:33:52;4.13;;;2.75;;
39266;SDS011;24967;51.154;13.812;2022-08-01T06:36:20;3.22;;;2.92;;
39266;SDS011;24967;51.154;13.812;2022-08-01T06:38:47;5.32;;;3.95;;
39266;SDS011;24967;51.154;13.812;2022-08-01T06:41:13;5.78;;;3.53;;
39266;SDS011;24967;51.154;13.812;2022-08-01T06:43:40;4.32;;;3.95;;
39266;SDS011;24967;51.154;13.812;2022-08-01T06:46:07;4.13;;;3.40;;
39266;SDS011;24967;51.154;13.812;2022-08-01T06:48:35;4.25;;;3.80;;
39266;SDS011;24967;51.154;13.812;2022-08-01T06:51:04;3.80;;;3.60;;
39266;SDS011;24967;51.154;13.812;2022-08-01T06:53:34;4.30;;;3.90;;
39266;SDS011;24967;51.154;13.812;2022-08-01T06:56:01;4.22;;;3.83;;
39266;SDS011;24967;51.154;13.812;2022-08-01T06:58:27;3.70;;;3.58;;
39266;SDS011;24967;51.154;13.812;2022-08-01T07:00:54;3.92;;;3.65;;
39266;SDS011;24967;51.154;13.812;2022-08-01T07:03:21;3.65;;;3.47;;
39266;SDS011;24967;51.154;13.812;2022-08-01T07:05:49;3.88;;;3.67;;
39266;SDS011;24967;51.154;13.812;2022-08-01T07:08:15;3.72;;;3.60;;
39266;SDS011;24967;51.154;13.812;2022-08-01T07:10:42;4.18;;;3.33;;
39266;SDS011;24967;51.154;13.812;2022-08-01T07:13:09;3.90;;;3.60;;
39266;SDS011;24967;51.154;13.812;2022-08-01T07:15:37;3.55;;;3.35;;
39266;SDS011;24967;51.154;13.812;2022-08-01T07:18:22;3.28;;;3.08;;
39266;SDS011;24967;51.154;13.812;2022-08-01T07:21:55;3.95;;;3.72;;
39266;SDS011;24967;51.154;13.812;2022-08-01T07:24:41;12.45;;;10.40;;
39266;SDS011;24967;51.154;13.812;2022-08-01T07:27:08;4.22;;;3.92;;
39266;SDS011;24967;51.154;13.812;2022-08-01T07:29:35;3.90;;;3.60;;
39266;SDS011;24967;51.154;13.812;2022-08-01T07:32:01;3.70;;;3.35;;
39266;SDS011;24967;51.154;13.812;2022-08-01T07:34:28;4.13;;;3.78;;
39266;SDS011;24967;51.154;13.812;2022-08-01T07:36:57;4.30;;;3.75;;
39266;SDS011;24967;51.154;13.812;2022-08-01T07:39:25;4.25;;;3.80;;
39266;SDS011;24967;51.154;13.812;2022-08-01T07:41:51;3.67;;;3.47;;
39266;SDS011;24967;51.154;13.812;2022-08-01T07:44:18;3.72;;;3.42;;
39266;SDS011;24967;51.154;13.812;2022-08-01T07:46:44;4.55;;;4.10;;
39266;SDS011;24967;51.154;13.812;2022-08-01T07:49:11;4.85;;;2.97;;
39266;SDS011;24967;51.154;13.812;2022-08-01T07:51:38;3.08;;;2.97;;
39266;SDS011;24967;51.154;13.812;2022-08-01T07:54:06;3.05;;;2.85;;
39266;SDS011;24967;51.154;13.812;2022-08-01T07:56:33;3.42;;;3.13;;
39266;SDS011;24967;51.154;13.812;2022-08-01T07:58:59;2.80;;;2.70;;
39266;SDS011;24967;51.154;13.812;2022-08-01T08:01:26;2.95;;;2.75;;
39266;SDS011;24967;51.154;13.812;2022-08-01T08:03:53;2.33;;;2.22;;
39266;SDS011;24967;51.154;13.812;2022-08-01T08:06:19;2.72;;;2.53;;
39266;SDS011;24967;51.154;13.812;2022-08-01T08:08:46;2.22;;;2.13;;
39266;SDS011;24967;51.154;13.812;2022-08-01T08:11:14;7.95;;;2.90;;
39266;SDS011;24967;51.154;13.812;2022-08-01T08:13:41;6.10;;;3.05;;
39266;SDS011;24967;51.154;13.812;2022-08-01T08:16:08;3.10;;;2.47;;
39266;SDS011;24967;51.154;13.812;2022-08-01T08:18:34;8.32;;;2.85;;
39266;SDS011;24967;51.154;13.812;2022-08-01T08:21:03;3.15;;;2.70;;
39266;SDS011;24967;51.154;13.812;2022-08-01T08:23:30;3.83;;;2.55;;
39266;SDS011;24967;51.154;13.812;2022-08-01T08:26:15;3.75;;;2.90;;
39266;SDS011;24967;51.154;13.812;2022-08-01T08:28:42;3.05;;;2.85;;
39266;SDS011;24967;51.154;13.812;2022-08-01T08:31:08;7.95;;;2.72;;
39266;SDS011;24967;51.154;13.812;2022-08-01T08:33:35;3.38;;;2.50;;
39266;SDS011;24967;51.154;13.812;2022-08-01T08:36:01;16.00;;;2.67;;
39266;SDS011;24967;51.154;13.812;2022-08-01T08:38:28;4.82;;;2.20;;
39266;SDS011;24967;51.154;13.812;2022-08-01T08:40:55;9.75;;;2.38;;
39266;SDS011;24967;51.154;13.812;2022-08-01T08:43:25;2.03;;;1.92;;
39266;SDS011;24967;51.154;13.812;2022-08-01T08:45:52;3.00;;;2.08;;
39266;SDS011;24967;51.154;13.812;2022-08-01T08:48:19;2.17;;;2.05;;
39266;SDS011;24967;51.154;13.812;2022-08-01T08:50:47;2.15;;;2.05;;
39266;SDS011;24967;51.154;13.812;2022-08-01T08:53:14;2.13;;;1.80;;
39266;SDS011;24967;51.154;13.812;2022-08-01T08:55:42;5.03;;;1.80;;
39266;SDS011;24967;51.154;13.812;2022-08-01T08:58:10;2.17;;;1.98;;
39266;SDS011;24967;51.154;13.812;2022-08-01T09:00:40;2.58;;;1.40;;
39266;SDS011;24967;51.154;13.812;2022-08-01T09:03:07;1.80;;;1.60;;
39266;SDS011;24967;51.154;13.812;2022-08-01T09:05:34;4.57;;;2.10;;
39266;SDS011;24967;51.154;13.812;2022-08-01T09:08:00;1.63;;;1.52;;
39266;SDS011;24967;51.154;13.812;2022-08-01T09:10:27;2.42;;;1.60;;
39266;SDS011;24967;51.154;13.812;2022-08-01T09:13:04;1.52;;;1.42;;
39266;SDS011;24967;51.154;13.812;2022-08-01T09:15:40;1.80;;;1.70;;
39266;SDS011;24967;51.154;13.812;2022-08-01T09:18:09;2.47;;;1.27;;
39266;SDS011;24967;51.154;13.812;2022-08-01T09:20:59;2.38;;;1.60;;
39266;SDS011;24967;51.154;13.812;2022-08-01T09:23:34;4.18;;;1.50;;
39266;SDS011;24967;51.154;13.812;2022-08-01T09:26:04;1.75;;;1.65;;
39266;SDS011;24967;51.154;13.812;2022-08-01T09:28:32;1.10;;;1.10;;
39266;SDS011;24967;51.154;13.812;2022-08-01T09:31:00;1.48;;;1.38;;
39266;SDS011;24967;51.154;13.812;2022-08-01T09:33:46;1.17;;;1.10;;
39266;SDS011;24967;51.154;13.812;2022-08-01T09:36:17;2.03;;;1.23;;
39266;SDS011;24967;51.154;13.812;2022-08-01T09:38:44;1.50;;;1.35;;
39266;SDS011;24967;51.154;13.812;2022-08-01T09:41:11;1.40;;;1.30;;
39266;SDS011;24967;51.154;13.812;2022-08-01T09:43:37;2.42;;;1.42;;
39266;SDS011;24967;51.154;13.812;2022-08-01T09:46:08;1.15;;;1.15;;
39266;SDS011;24967;51.154;13.812;2022-08-01T09:48:37;1.50;;;1.40;;
39266;SDS011;24967;51.154;13.812;2022-08-01T09:51:05;1.48;;;1.45;;
39266;SDS011;24967;51.154;13.812;2022-08-01T09:53:41;1.70;;;1.60;;
39266;SDS011;24967;51.154;13.812;2022-08-01T09:56:12;1.60;;;1.50;;
39266;SDS011;24967;51.154;13.812;2022-08-01T09:58:48;1.80;;;1.70;;
39266;SDS011;24967;51.154;13.812;2022-08-01T10:01:21;1.48;;;1.48;;
39266;SDS011;24967;51.154;13.812;2022-08-01T10:03:56;1.60;;;1.50;;
39266;SDS011;24967;51.154;13.812;2022-08-01T10:06:31;2.03;;;1.40;;
39266;SDS011;24967;51.154;13.812;2022-08-01T10:08:57;3.13;;;1.30;;
39266;SDS011;24967;51.154;13.812;2022-08-01T10:11:24;1.52;;;1.20;;
39266;SDS011;24967;51.154;13.812;2022-08-01T10:13:52;1.20;;;1.20;;
39266;SDS011;24967;51.154;13.812;2022-08-01T10:16:21;1.40;;;1.40;;
39266;SDS011;24967;51.154;13.812;2022-08-01T10:18:47;1.80;;;1.20;;
39266;SDS011;24967;51.154;13.812;2022-08-01T10:21:16;1.25;;;1.10;;
39266;SDS011;24967;51.154;13.812;2022-08-01T10:23:42;1.17;;;1.05;;
39266;SDS011;24967;51.154;13.812;2022-08-01T10:26:11;1.20;;;1.20;;
39266;SDS011;24967;51.154;13.812;2022-08-01T10:28:38;2.72;;;1.00;;
39266;SDS011;24967;51.154;13.812;2022-08-01T10:31:07;1.10;;;1.00;;
39266;SDS011;24967;51.154;13.812;2022-08-01T10:33:54;0.90;;;0.90;;
39266;SDS011;24967;51.154;13.812;2022-08-01T10:36:49;0.95;;;0.82;;
39266;SDS011;24967;51.154;13.812;2022-08-01T10:39:16;0.80;;;0.80;;
39266;SDS011;24967;51.154;13.812;2022-08-01T10:41:44;1.05;;;0.80;;
39266;SDS011;24967;51.154;13.812;2022-08-01T10:44:12;1.20;;;0.85;;
39266;SDS011;24967;51.154;13.812;2022-08-01T10:46:39;0.95;;;0.95;;
39266;SDS011;24967;51.154;13.812;2022-08-01T10:51:39;0.50;;;0.50;;
39266;SDS011;24967;51.154;13.812;2022-08-01T10:54:18;2.53;;;0.60;;
39266;SDS011;24967;51.154;13.812;2022-08-01T10:57:18;0.60;;;0.60;;
39266;SDS011;24967;51.154;13.812;2022-08-01T11:00:40;1.17;;;0.63;;
39266;SDS011;24967;51.154;13.812;2022-08-01T11:09:40;0.65;;;0.50;;
39266;SDS011;24967;51.154;13.812;2022-08-01T11:15:24;2.03;;;0.50;;
39266;SDS011;24967;51.154;13.812;2022-08-01T11:18:29;0.65;;;0.40;;
39266;SDS011;24967;51.154;13.812;2022-08-01T11:20:58;1.23;;;0.35;;
39266;SDS011;24967;51.154;13.812;2022-08-01T11:23:27;0.60;;;0.50;;
39266;SDS011;24967;51.154;13.812;2022-08-01T11:26:12;2.65;;;0.35;;
39266;SDS011;24967;51.154;13.812;2022-08-01T11:37:55;1.50;;;0.50;;
39266;SDS011;24967;51.154;13.812;2022-08-01T11:40:24;1.45;;;0.50;;
39266;SDS011;24967;51.154;13.812;2022-08-01T11:45:46;3.20;;;0.50;;
39266;SDS011;24967;51.154;13.812;2022-08-01T11:48:17;1.83;;;0.50;;
39266;SDS011;24967;51.154;13.812;2022-08-01T11:53:11;0.38;;;0.38;;
39266;SDS011;24967;51.154;13.812;2022-08-01T11:55:44;0.40;;;0.40;;
39266;SDS011;24967;51.154;13.812;2022-08-01T11:58:13;0.63;;;0.63;;
39266;SDS011;24967;51.154;13.812;2022-08-01T12:00:41;0.50;;;0.50;;
39266;SDS011;24967;51.154;13.812;2022-08-01T12:03:08;0.35;;;0.35;;
39266;SDS011;24967;51.154;13.812;2022-08-01T12:05:35;1.05;;;0.40;;
39266;SDS011;24967;51.154;13.812;2022-08-01T12:08:03;1.63;;;1.08;;
39266;SDS011;24967;51.154;13.812;2022-08-01T12:10:32;2.10;;;1.10;;
39266;SDS011;24967;51.154;13.812;2022-08-01T12:13:03;2.67;;;2.55;;
39266;SDS011;24967;51.154;13.812;2022-08-01T12:15:32;0.70;;;0.70;;
39266;SDS011;24967;51.154;13.812;2022-08-01T12:18:07;1.67;;;0.70;;
39266;SDS011;24967;51.154;13.812;2022-08-01T12:20:46;0.70;;;0.70;;
39266;SDS011;24967;51.154;13.812;2022-08-01T12:23:13;0.60;;;0.60;;
39266;SDS011;24967;51.154;13.812;2022-08-01T12:25:42;1.55;;;0.68;;
39266;SDS011;24967;51.154;13.812;2022-08-01T12:28:11;2.05;;;0.68;;
39266;SDS011;24967;51.154;13.812;2022-08-01T12:30:40;0.80;;;0.80;;
39266;SDS011;24967;51.154;13.812;2022-08-01T12:36:02;2.15;;;0.50;;
39266;SDS011;24967;51.154;13.812;2022-08-01T12:38:36;1.33;;;0.63;;
39266;SDS011;24967;51.154;13.812;2022-08-01T12:41:03;2.45;;;0.80;;
39266;SDS011;24967;51.154;13.812;2022-08-01T12:43:32;4.35;;;2.10;;
39266;SDS011;24967;51.154;13.812;2022-08-01T12:45:59;2.45;;;1.33;;
39266;SDS011;24967;51.154;13.812;2022-08-01T12:48:26;1.05;;;0.90;;
39266;SDS011;24967;51.154;13.812;2022-08-01T12:54:17;1.23;;;0.60;;
39266;SDS011;24967;51.154;13.812;2022-08-01T12:56:43;0.60;;;0.60;;
39266;SDS011;24967;51.154;13.812;2022-08-01T12:59:34;2.30;;;0.80;;
39266;SDS011;24967;51.154;13.812;2022-08-01T13:02:08;0.65;;;0.60;;
39266;SDS011;24967;51.154;13.812;2022-08-01T13:11:08;0.50;;;0.50;;
39266;SDS011;24967;51.154;13.812;2022-08-01T13:17:33;0.75;;;0.75;;
39266;SDS011;24967;51.154;13.812;2022-08-01T13:23:17;2.53;;;0.60;;
39266;SDS011;24967;51.154;13.812;2022-08-01T13:46:46;0.50;;;0.50;;
39266;SDS011;24967;51.154;13.812;2022-08-01T13:52:38;1.23;;;0.50;;
39266;SDS011;24967;51.154;13.812;2022-08-01T14:01:41;1.48;;;0.55;;
39266;SDS011;24967;51.154;13.812;2022-08-01T14:04:43;0.90;;;0.60;;
39266;SDS011;24967;51.154;13.812;2022-08-01T14:07:55;1.60;;;0.45;;
39266;SDS011;24967;51.154;13.812;2022-08-01T14:14:13;2.80;;;0.50;;
39266;SDS011;24967;51.154;13.812;2022-08-01T14:16:48;1.70;;;0.60;;
39266;SDS011;24967;51.154;13.812;2022-08-01T14:19:14;4.88;;;0.70;;
39266;SDS011;24967;51.154;13.812;2022-08-01T14:21:44;2.33;;;0.50;;
39266;SDS011;24967;51.154;13.812;2022-08-01T14:24:14;0.57;;;0.57;;
39266;SDS011;24967;51.154;13.812;2022-08-01T14:26:42;2.45;;;0.50;;
39266;SDS011;24967;51.154;13.812;2022-08-01T14:29:08;1.00;;;0.60;;
39266;SDS011;24967;51.154;13.812;2022-08-01T14:31:35;1.40;;;0.60;;
39266;SDS011;24967;51.154;13.812;2022-08-01T14:34:02;3.70;;;0.50;;
39266;SDS011;24967;51.154;13.812;2022-08-01T14:36:28;2.28;;;0.60;;
39266;SDS011;24967;51.154;13.812;2022-08-01T14:38:57;2.40;;;0.68;;
39266;SDS011;24967;51.154;13.812;2022-08-01T14:41:24;4.57;;;0.60;;
39266;SDS011;24967;51.154;13.812;2022-08-01T14:43:50;0.50;;;0.50;;
39266;SDS011;24967;51.154;13.812;2022-08-01T14:46:17;0.50;;;0.50;;
39266;SDS011;24967;51.154;13.812;2022-08-01T14:48:43;1.63;;;0.60;;
39266;SDS011;24967;51.154;13.812;2022-08-01T14:51:10;1.13;;;0.50;;
39266;SDS011;24967;51.154;13.812;2022-08-01T14:53:37;1.25;;;0.60;;
39266;SDS011;24967;51.154;13.812;2022-08-01T14:56:06;1.35;;;0.70;;
39266;SDS011;24967;51.154;13.812;2022-08-01T14:58:33;1.75;;;0.80;;
39266;SDS011;24967;51.154;13.812;2022-08-01T15:00:59;1.08;;;0.40;;
39266;SDS011;24967;51.154;13.812;2022-08-01T15:03:26;1.10;;;0.50;;
39266;SDS011;24967;51.154;13.812;2022-08-01T15:05:53;0.50;;;0.50;;
39266;SDS011;24967;51.154;13.812;2022-08-01T15:08:36;2.60;;;0.60;;
39266;SDS011;24967;51.154;13.812;2022-08-01T15:11:03;0.50;;;0.50;;
39266;SDS011;24967;51.154;13.812;2022-08-01T15:13:31;0.47;;;0.30;;
39266;SDS011;24967;51.154;13.812;2022-08-01T15:15:58;0.50;;;0.50;;
39266;SDS011;24967;51.154;13.812;2022-08-01T15:18:25;2.05;;;0.70;;
39266;SDS011;24967;51.154;13.812;2022-08-01T15:20:52;0.40;;;0.40;;
39266;SDS011;24967;51.154;13.812;2022-08-01T15:23:18;0.63;;;0.40;;
39266;SDS011;24967;51.154;13.812;2022-08-01T15:25:45;1.70;;;0.50;;
39266;SDS011;24967;51.154;13.812;2022-08-01T15:28:12;1.38;;;0.40;;
39266;SDS011;24967;51.154;13.812;2022-08-01T15:30:41;0.40;;;0.38;;
39266;SDS011;24967;51.154;13.812;2022-08-01T15:33:07;0.45;;;0.45;;
39266;SDS011;24967;51.154;13.812;2022-08-01T15:35:34;0.73;;;0.32;;
39266;SDS011;24967;51.154;13.812;2022-08-01T15:38:01;1.33;;;0.50;;
39266;SDS011;24967;51.154;13.812;2022-08-01T15:40:27;0.45;;;0.40;;
39266;SDS011;24967;51.154;13.812;2022-08-01T15:42:58;1.55;;;0.50;;
39266;SDS011;24967;51.154;13.812;2022-08-01T15:45:25;0.43;;;0.40;;
39266;SDS011;24967;51.154;13.812;2022-08-01T15:47:53;3.40;;;0.60;;
39266;SDS011;24967;51.154;13.812;2022-08-01T15:50:20;0.50;;;0.47;;
39266;SDS011;24967;51.154;13.812;2022-08-01T15:52:47;0.55;;;0.50;;
39266;SDS011;24967;51.154;13.812;2022-08-01T15:55:13;0.30;;;0.30;;
39266;SDS011;24967;51.154;13.812;2022-08-01T15:57:40;0.40;;;0.40;;
39266;SDS011;24967;51.154;13.812;2022-08-01T16:00:07;1.33;;;0.50;;
39266;SDS011;24967;51.154;13.812;2022-08-01T16:02:35;0.50;;;0.50;;
39266;SDS011;24967;51.154;13.812;2022-08-01T16:05:03;2.38;;;0.50;;
39266;SDS011;24967;51.154;13.812;2022-08-01T16:07:30;1.55;;;0.43;;
39266;SDS011;24967;51.154;13.812;2022-08-01T16:09:57;0.55;;;0.47;;
39266;SDS011;24967;51.154;13.812;2022-08-01T16:12:24;2.88;;;0.40;;
39266;SDS011;24967;51.154;13.812;2022-08-01T16:14:51;4.10;;;0.50;;